Terminal Aerodrome Forecast
Issued by NWS Lake Charles, LA

Home | Current Version | Previous Version | Text Only | Print | Product List | Glossary On
Versions: 1 2 3 4 5 6 7 8 9 10 11 12 13 14 15 16 17
000
FTUS44 KLCH 021720
TAFLFT
TAF
KLFT 021720Z 0218/0318 20008KT P6SM BKN200
     FM030100 20003KT P6SM SCT015
     FM030900 VRB03KT 5SM HZ BKN015
     FM031400 21009KT P6SM SCT025=

USA.gov is the U.S. government's official web portal to all federal, state and local government web resources and services.